createdAt,value
2018-03-27T00:00:44.376Z,19.35
2018-03-27T00:03:12.277Z,20.50
2018-03-27T00:05:39.807Z,18.30
2018-03-27T00:08:07.292Z,16.85
2018-03-27T00:10:34.814Z,19.58
2018-03-27T00:13:02.305Z,20.45
2018-03-27T00:15:29.890Z,20.12
2018-03-27T00:17:57.779Z,20.88
2018-03-27T00:20:25.690Z,18.23
2018-03-27T00:22:53.258Z,16.52
2018-03-27T00:25:21.236Z,17.15
2018-03-27T00:28:00.413Z,19.40
2018-03-27T00:30:39.875Z,18.92
2018-03-27T00:33:19.750Z,19.87
2018-03-27T00:35:59.449Z,19.73
2018-03-27T00:38:38.751Z,19.42
2018-03-27T00:43:59.557Z,20.00
2018-03-27T00:46:27.554Z,21.50
2018-03-27T00:48:55.450Z,18.70
2018-03-27T00:51:23.349Z,20.25
2018-03-27T00:53:51.240Z,19.90
2018-03-27T00:56:19.154Z,20.98
2018-03-27T00:58:46.651Z,25.73
2018-03-27T01:01:14.173Z,24.67
2018-03-27T01:03:41.656Z,22.35
2018-03-27T01:06:09.173Z,24.85
2018-03-27T01:08:37.057Z,27.77
2018-03-27T01:11:05.041Z,23.65
2018-03-27T01:13:33.035Z,30.52
2018-03-27T01:16:00.545Z,33.38
2018-03-27T01:18:28.101Z,31.30
2018-03-27T01:20:55.684Z,30.45
2018-03-27T01:23:23.181Z,32.53
2018-03-27T01:25:51.079Z,30.23
2018-03-27T01:28:18.960Z,30.85
2018-03-27T01:30:46.940Z,30.45
2018-03-27T01:33:14.424Z,30.70
2018-03-27T01:35:41.946Z,29.67
2018-03-27T01:38:09.506Z,28.95
2018-03-27T01:40:37.502Z,29.15
2018-03-27T01:43:05.384Z,24.63
2018-03-27T01:45:33.283Z,26.95
2018-03-27T01:48:01.189Z,24.25
2018-03-27T01:50:29.167Z,27.45
2018-03-27T01:52:57.153Z,26.48
2018-03-27T01:55:24.646Z,26.27
2018-03-27T01:57:52.556Z,25.55
2018-03-27T02:00:20.046Z,29.90
2018-03-27T02:02:47.558Z,29.27
2018-03-27T02:05:15.060Z,26.75
2018-03-27T02:07:42.568Z,25.00
2018-03-27T02:10:10.057Z,25.42
2018-03-27T02:12:43.644Z,27.10
2018-03-27T02:15:16.894Z,26.90
2018-03-27T02:17:50.200Z,25.85
2018-03-27T02:20:23.467Z,27.13
2018-03-27T02:23:06.772Z,26.98
2018-03-27T02:25:34.292Z,28.95
2018-03-27T02:28:02.269Z,29.95
2018-03-27T02:30:30.156Z,28.30
2018-03-27T02:32:58.057Z,29.25
2018-03-27T02:35:25.951Z,28.58
2018-03-27T02:37:53.874Z,25.80
2018-03-27T02:40:21.375Z,28.70
2018-03-27T02:42:48.884Z,27.67
2018-03-27T02:45:16.391Z,28.35
2018-03-27T02:47:44.396Z,29.33
2018-03-27T02:50:12.384Z,29.85
2018-03-27T02:52:40.370Z,29.55
2018-03-27T02:55:07.948Z,29.00
2018-03-27T02:57:35.466Z,28.58
2018-03-27T03:00:02.976Z,27.42
2018-03-27T03:02:30.486Z,27.50
2018-03-27T03:04:58.194Z,28.35
2018-03-27T03:07:26.105Z,27.60
2018-03-27T03:09:54.000Z,27.25
2018-03-27T03:12:21.977Z,25.60
2018-03-27T03:14:49.468Z,28.25
2018-03-27T03:17:17.378Z,26.90
2018-03-27T03:19:44.882Z,29.63
2018-03-27T03:22:12.396Z,28.23
2018-03-27T03:24:39.884Z,29.83
2018-03-27T03:27:07.369Z,28.40
2018-03-27T03:29:34.969Z,28.40
2018-03-27T03:32:02.853Z,27.58
2018-03-27T03:34:30.362Z,28.55
2018-03-27T03:36:57.875Z,28.08
2018-03-27T03:39:25.420Z,29.85
2018-03-27T03:41:53.308Z,29.35
2018-03-27T03:44:20.822Z,27.52
2018-03-27T03:46:48.308Z,27.85
2018-03-27T03:49:15.817Z,28.12
2018-03-27T03:51:43.316Z,27.87
2018-03-27T03:54:10.930Z,30.27
2018-03-27T03:56:38.813Z,31.27
2018-03-27T03:59:06.401Z,28.85
2018-03-27T04:01:33.901Z,28.12
2018-03-27T04:04:01.875Z,29.63
2018-03-27T04:06:29.466Z,28.08
2018-03-27T04:08:57.463Z,30.02
2018-03-27T04:11:25.462Z,29.63
2018-03-27T04:13:53.455Z,28.45
2018-03-27T04:16:20.948Z,28.50
2018-03-27T04:18:48.853Z,31.33
2018-03-27T04:21:16.405Z,30.05
2018-03-27T04:23:43.909Z,31.55
2018-03-27T04:26:11.918Z,29.92
2018-03-27T04:28:39.413Z,32.60
2018-03-27T04:31:06.901Z,34.30
2018-03-27T04:33:34.452Z,34.33
2018-03-27T04:36:02.438Z,36.00
2018-03-27T04:38:30.347Z,36.53
2018-03-27T04:40:57.837Z,33.28
2018-03-27T04:43:25.398Z,33.55
2018-03-27T04:45:52.895Z,36.80
2018-03-27T04:48:20.864Z,35.58
2018-03-27T04:50:48.366Z,36.50
2018-03-27T04:53:16.349Z,31.85
2018-03-27T04:55:43.870Z,35.53
2018-03-27T04:58:11.371Z,34.00
2018-03-27T05:00:38.988Z,34.90
2018-03-27T05:03:06.576Z,38.30
2018-03-27T05:05:34.098Z,36.00
2018-03-27T05:08:01.645Z,36.25
2018-03-27T05:10:29.232Z,35.55
2018-03-27T05:12:56.826Z,35.92
2018-03-27T05:15:24.350Z,37.88
2018-03-27T05:17:51.836Z,35.42
2018-03-27T05:20:19.364Z,39.28
2018-03-27T05:22:46.957Z,38.60
2018-03-27T05:25:14.545Z,37.33
2018-03-27T05:27:42.424Z,35.83
2018-03-27T05:30:10.026Z,34.92
2018-03-27T05:32:38.005Z,38.30
2018-03-27T05:35:05.594Z,38.15
2018-03-27T05:37:33.076Z,36.55
2018-03-27T05:40:00.584Z,36.10
2018-03-27T05:42:28.552Z,36.65
2018-03-27T05:44:56.150Z,38.47
2018-03-27T05:47:24.762Z,38.30
2018-03-27T05:49:52.674Z,36.92
2018-03-27T05:52:20.165Z,35.70
2018-03-27T05:54:47.686Z,35.90
2018-03-27T05:57:15.186Z,35.17
2018-03-27T05:59:42.702Z,35.15
2018-03-27T06:02:10.191Z,31.52
2018-03-27T06:04:37.702Z,29.60
2018-03-27T06:07:05.198Z,30.20
2018-03-27T06:09:32.709Z,28.05
2018-03-27T06:12:00.201Z,30.95
2018-03-27T06:14:28.114Z,29.25
2018-03-27T06:16:55.600Z,30.73
2018-03-27T06:19:23.120Z,31.67
2018-03-27T06:21:50.608Z,32.55
2018-03-27T06:24:18.100Z,28.90
2018-03-27T06:26:45.620Z,30.35
2018-03-27T06:29:13.513Z,31.23
2018-03-27T06:31:41.029Z,32.55
2018-03-27T06:34:08.532Z,34.95
2018-03-27T06:36:36.049Z,36.17
2018-03-27T06:39:03.963Z,33.97
2018-03-27T06:41:31.516Z,35.95
2018-03-27T06:43:59.001Z,36.13
2018-03-27T06:46:26.517Z,33.35
2018-03-27T06:48:54.000Z,35.80
2018-03-27T06:51:21.501Z,35.67
2018-03-27T06:53:49.046Z,36.03
2018-03-27T06:56:16.949Z,36.65
2018-03-27T06:58:44.843Z,35.45
2018-03-27T07:01:12.746Z,37.05
2018-03-27T07:03:40.305Z,35.65
2018-03-27T07:06:07.798Z,34.10
2018-03-27T07:08:35.787Z,35.53
2018-03-27T07:11:03.793Z,38.88
2018-03-27T07:13:31.762Z,35.63
2018-03-27T07:15:59.780Z,40.03
2018-03-27T07:18:27.304Z,38.42
2018-03-27T07:20:54.858Z,36.70
2018-03-27T07:23:22.742Z,39.42
2018-03-27T07:25:50.252Z,37.70
2018-03-27T07:28:17.781Z,39.95
2018-03-27T07:30:45.367Z,36.90
2018-03-27T07:33:12.866Z,41.10
2018-03-27T07:35:40.765Z,41.15
2018-03-27T07:38:08.736Z,40.12
2018-03-27T07:40:36.246Z,35.58
2018-03-27T07:43:04.132Z,36.60
2018-03-27T07:45:32.109Z,37.42
2018-03-27T07:47:59.611Z,39.97
2018-03-27T07:50:27.580Z,39.85
2018-03-27T07:52:55.094Z,39.22
2018-03-27T07:55:22.986Z,38.65
2018-03-27T07:57:50.889Z,38.70
2018-03-27T08:00:18.372Z,35.63
2018-03-27T08:02:45.886Z,38.25
2018-03-27T08:05:13.369Z,39.53
2018-03-27T08:07:40.872Z,38.03
2018-03-27T08:10:08.357Z,40.60
2018-03-27T08:12:35.872Z,39.78
2018-03-27T08:15:03.356Z,39.30
2018-03-27T08:17:31.253Z,38.25
2018-03-27T08:19:58.740Z,39.58
2018-03-27T08:22:26.248Z,35.50
2018-03-27T08:24:53.747Z,35.33
2018-03-27T08:27:21.368Z,38.33
2018-03-27T08:29:49.272Z,38.00
2018-03-27T08:32:17.255Z,39.75
2018-03-27T08:34:45.146Z,36.47
2018-03-27T08:37:13.138Z,35.33
2018-03-27T08:39:40.629Z,37.08
2018-03-27T08:42:08.532Z,36.83
2018-03-27T08:44:36.412Z,34.20
2018-03-27T08:47:04.327Z,35.63
2018-03-27T08:49:31.834Z,38.15
2018-03-27T08:51:59.350Z,33.95
2018-03-27T08:54:26.946Z,33.03
2018-03-27T08:56:54.460Z,32.85
2018-03-27T08:59:22.019Z,37.38
2018-03-27T09:01:50.008Z,34.47
2018-03-27T09:04:17.606Z,33.03
2018-03-27T09:06:45.526Z,29.48
2018-03-27T09:09:13.021Z,30.33
2018-03-27T09:11:40.558Z,32.17
2018-03-27T09:14:08.154Z,31.92
2018-03-27T09:16:36.055Z,33.75
2018-03-27T09:19:03.574Z,29.45
2018-03-27T09:21:31.060Z,30.27
2018-03-27T09:23:58.584Z,29.65
2018-03-27T09:26:26.472Z,27.92
2018-03-27T09:28:53.989Z,26.30
2018-03-27T09:31:21.488Z,30.05
2018-03-27T09:33:49.060Z,26.90
2018-03-27T09:36:16.548Z,27.92
2018-03-27T09:38:44.069Z,27.60
2018-03-27T09:41:11.608Z,25.05
2018-03-27T09:43:39.582Z,27.48
2018-03-27T09:46:07.081Z,23.08
2018-03-27T09:48:34.676Z,22.37
2018-03-27T09:51:02.181Z,21.98
2018-03-27T09:53:29.814Z,21.02
2018-03-27T09:55:57.726Z,18.15
2018-03-27T09:58:25.289Z,17.23
2018-03-27T10:00:53.285Z,16.00
2018-03-27T10:03:21.211Z,14.35
2018-03-27T10:05:48.847Z,14.90
2018-03-27T10:08:16.365Z,14.95
2018-03-27T10:10:44.326Z,15.88
2018-03-27T10:13:11.937Z,16.92
2018-03-27T10:15:39.858Z,18.48
2018-03-27T10:18:07.382Z,17.73
2018-03-27T10:20:35.011Z,19.70
2018-03-27T10:23:02.540Z,16.85
2018-03-27T10:25:30.067Z,17.58
2018-03-27T10:27:58.070Z,13.62
2018-03-27T10:30:25.655Z,12.37
2018-03-27T10:32:53.168Z,14.68
2018-03-27T10:35:20.661Z,14.32
2018-03-27T10:37:48.156Z,14.30
2018-03-27T10:40:15.674Z,14.15
2018-03-27T10:42:43.656Z,11.43
2018-03-27T10:45:11.192Z,10.50
2018-03-27T10:47:38.737Z,7.82
2018-03-27T10:50:06.846Z,8.50
2018-03-27T10:52:34.360Z,8.30
2018-03-27T10:55:01.893Z,10.03
2018-03-27T10:57:29.394Z,9.27
2018-03-27T10:59:57.305Z,9.60
2018-03-27T11:02:24.867Z,9.73
2018-03-27T11:04:52.787Z,8.10
2018-03-27T11:07:20.283Z,9.27
2018-03-27T11:09:47.804Z,8.97
2018-03-27T11:12:15.307Z,12.90
2018-03-27T11:14:43.231Z,13.23
2018-03-27T11:17:10.739Z,13.97
2018-03-27T11:19:38.361Z,13.17
2018-03-27T11:22:05.948Z,13.70
2018-03-27T11:24:33.875Z,13.60
2018-03-27T11:27:01.372Z,12.70
2018-03-27T11:29:28.918Z,15.10
2018-03-27T11:31:56.814Z,14.20
2018-03-27T11:34:24.794Z,15.87
2018-03-27T11:36:52.703Z,14.98
2018-03-27T11:39:20.293Z,14.47
2018-03-27T11:41:48.187Z,14.57
2018-03-27T11:44:15.758Z,14.40
2018-03-27T11:46:43.736Z,14.07
2018-03-27T11:49:11.649Z,13.70
2018-03-27T11:51:39.217Z,13.60
2018-03-27T11:54:07.190Z,12.95
2018-03-27T11:56:34.699Z,13.70
2018-03-27T11:59:02.706Z,12.35
2018-03-27T12:01:30.617Z,13.07
2018-03-27T12:03:58.168Z,12.80
2018-03-27T12:06:26.072Z,12.82
2018-03-27T12:08:54.062Z,12.87
2018-03-27T12:11:21.969Z,13.80
2018-03-27T12:13:49.478Z,14.10
2018-03-27T12:16:17.023Z,13.40
2018-03-27T12:18:45.005Z,13.20
2018-03-27T12:21:12.594Z,13.83
2018-03-27T12:23:40.088Z,15.00
2018-03-27T12:26:08.006Z,14.97
2018-03-27T12:28:35.562Z,15.67
2018-03-27T12:31:03.560Z,16.83
2018-03-27T12:33:31.463Z,16.50
2018-03-27T12:35:58.980Z,16.60
2018-03-27T12:38:26.506Z,16.50
2018-03-27T12:40:54.043Z,16.47
2018-03-27T12:43:21.536Z,18.10
2018-03-27T12:45:49.044Z,16.87
2018-03-27T12:48:16.645Z,19.30
2018-03-27T12:50:44.159Z,19.60
2018-03-27T12:53:11.706Z,17.33
2018-03-27T12:55:39.181Z,18.03
2018-03-27T12:58:06.672Z,16.70
2018-03-27T13:00:34.189Z,18.43
2018-03-27T13:03:01.710Z,16.70
2018-03-27T13:05:29.224Z,18.03
2018-03-27T13:07:56.727Z,17.90
2018-03-27T13:10:24.236Z,17.93
2018-03-27T13:12:51.742Z,16.87
2018-03-27T13:15:19.267Z,18.17
2018-03-27T13:17:46.789Z,17.70
2018-03-27T13:20:14.325Z,18.23
2018-03-27T13:22:42.223Z,18.52
2018-03-27T13:25:09.814Z,17.23
2018-03-27T13:27:37.316Z,16.13
2018-03-27T13:30:04.833Z,16.97
2018-03-27T13:32:32.337Z,17.40
2018-03-27T13:34:59.866Z,18.30
2018-03-27T13:37:27.539Z,18.67
2018-03-27T13:39:55.045Z,17.58
2018-03-27T13:42:22.682Z,17.23
2018-03-27T13:44:50.583Z,19.08
2018-03-27T13:47:18.130Z,17.03
2018-03-27T13:49:45.638Z,18.00
2018-03-27T13:52:13.264Z,18.30
2018-03-27T13:54:40.765Z,17.00
2018-03-27T13:57:08.396Z,18.87
2018-03-27T13:59:35.906Z,18.45
2018-03-27T14:02:03.423Z,17.87
2018-03-27T14:04:30.960Z,17.60
2018-03-27T14:06:58.954Z,18.10
2018-03-27T14:09:26.856Z,17.45
2018-03-27T14:11:54.838Z,16.87
2018-03-27T14:14:22.860Z,18.52
2018-03-27T14:16:50.425Z,17.52
2018-03-27T14:19:18.316Z,17.20
2018-03-27T14:21:46.347Z,19.00
2018-03-27T14:24:13.848Z,18.08
2018-03-27T14:26:41.456Z,18.85
2018-03-27T14:29:09.064Z,18.50
2018-03-27T14:31:36.984Z,18.73
2018-03-27T14:34:04.506Z,18.42
2018-03-27T14:36:32.328Z,18.08
2018-03-27T14:39:00.323Z,19.45
2018-03-27T14:41:28.360Z,20.52
2018-03-27T14:43:55.904Z,18.62
2018-03-27T14:46:23.965Z,20.67
2018-03-27T14:48:51.474Z,17.98
2018-03-27T14:51:19.402Z,19.90
2018-03-27T14:53:46.898Z,21.15
2018-03-27T14:56:14.418Z,19.95
2018-03-27T14:58:41.926Z,19.73
2018-03-27T15:01:09.874Z,20.10
2018-03-27T15:03:37.392Z,21.23
2018-03-27T15:06:04.982Z,20.83
2018-03-27T15:08:32.510Z,21.05
2018-03-27T15:11:00.014Z,19.90
2018-03-27T15:13:27.554Z,21.42
2018-03-27T15:15:55.462Z,22.60
2018-03-27T15:18:23.001Z,21.80
2018-03-27T15:20:50.502Z,23.10
2018-03-27T15:23:18.408Z,22.05
2018-03-27T15:25:45.906Z,20.80
2018-03-27T15:28:13.427Z,22.98
2018-03-27T15:30:40.933Z,20.75
2018-03-27T15:33:08.453Z,22.52
2018-03-27T15:35:35.943Z,23.27
2018-03-27T15:38:03.490Z,21.45
2018-03-27T15:40:31.386Z,21.27
2018-03-27T15:42:59.374Z,22.77
2018-03-27T15:45:27.265Z,21.73
2018-03-27T15:47:55.190Z,21.15
2018-03-27T15:50:22.696Z,21.05
2018-03-27T15:52:50.200Z,20.65
2018-03-27T15:55:17.695Z,21.45
2018-03-27T15:57:45.214Z,21.75
2018-03-27T16:00:13.194Z,21.45
2018-03-27T16:02:41.100Z,20.15
2018-03-27T16:05:08.983Z,22.98
2018-03-27T16:07:36.888Z,21.90
2018-03-27T16:10:04.778Z,20.30
2018-03-27T16:12:32.691Z,19.42
2018-03-27T16:15:00.202Z,22.17
2018-03-27T16:17:27.709Z,18.20
2018-03-27T16:19:55.292Z,19.15
2018-03-27T16:22:22.801Z,18.62
2018-03-27T16:24:50.705Z,20.05
2018-03-27T16:27:18.221Z,18.08
2018-03-27T16:29:45.745Z,20.15
2018-03-27T16:32:13.252Z,20.95
2018-03-27T16:34:40.774Z,21.50
2018-03-27T16:37:08.307Z,21.92
2018-03-27T16:39:36.212Z,21.08
2018-03-27T16:42:03.716Z,24.55
2018-03-27T16:44:31.264Z,23.33
2018-03-27T16:46:59.244Z,23.60
2018-03-27T16:49:26.752Z,24.95
2018-03-27T16:51:54.650Z,27.50
2018-03-27T16:54:22.175Z,24.90
2018-03-27T16:56:49.692Z,24.92
2018-03-27T16:59:17.290Z,21.27
2018-03-27T17:01:45.231Z,22.15
2018-03-27T17:04:12.743Z,19.02
2018-03-27T17:06:40.235Z,21.62
2018-03-27T17:09:07.798Z,19.90
2018-03-27T17:11:35.338Z,19.15
2018-03-27T17:14:02.888Z,20.85
2018-03-27T17:16:30.487Z,19.15
2018-03-27T17:18:58.464Z,16.27
2018-03-27T17:21:25.958Z,15.05
2018-03-27T17:23:53.473Z,13.45
2018-03-27T17:26:21.021Z,14.23
2018-03-27T17:28:48.538Z,14.87
2018-03-27T17:31:16.096Z,15.38
2018-03-27T17:33:44.086Z,14.05
2018-03-27T17:36:11.577Z,15.80
2018-03-27T17:38:39.476Z,16.12
2018-03-27T17:41:07.444Z,15.23
2018-03-27T17:43:34.953Z,16.33
2018-03-27T17:46:02.496Z,18.42
2018-03-27T17:48:30.092Z,17.33
2018-03-27T17:50:57.576Z,24.85
2018-03-27T17:53:25.080Z,19.50
2018-03-27T17:55:53.062Z,19.55
2018-03-27T17:58:20.589Z,19.30
2018-03-27T18:00:48.096Z,18.23
2018-03-27T18:03:15.580Z,21.37
2018-03-27T18:05:43.084Z,21.95
2018-03-27T18:08:10.582Z,23.65
2018-03-27T18:10:38.494Z,21.75
2018-03-27T18:13:05.994Z,22.98
2018-03-27T18:15:33.532Z,22.73
2018-03-27T18:18:01.024Z,25.30
2018-03-27T18:20:29.068Z,24.90
2018-03-27T18:22:56.604Z,24.27
2018-03-27T18:25:24.677Z,24.95
2018-03-27T18:27:52.273Z,26.08
2018-03-27T18:30:19.958Z,25.25
2018-03-27T18:32:47.547Z,27.17
2018-03-27T18:35:15.363Z,26.80
2018-03-27T18:37:43.244Z,25.90
2018-03-27T18:40:11.140Z,27.60
2018-03-27T18:42:39.021Z,26.67
2018-03-27T18:45:06.606Z,28.00
2018-03-27T18:47:34.198Z,28.60
2018-03-27T18:50:02.163Z,26.52
2018-03-27T18:52:29.760Z,28.77
2018-03-27T18:54:57.265Z,27.70
2018-03-27T18:57:25.159Z,29.83
2018-03-27T18:59:53.169Z,28.92
2018-03-27T19:02:20.674Z,29.77
2018-03-27T19:04:48.221Z,29.23
2018-03-27T19:07:15.704Z,31.27
2018-03-27T19:09:43.676Z,31.40
2018-03-27T19:12:11.160Z,31.77
2018-03-27T19:14:39.076Z,31.42
2018-03-27T19:17:06.977Z,32.55
2018-03-27T19:19:34.492Z,33.28
2018-03-27T19:22:01.977Z,31.23
2018-03-27T19:24:29.607Z,31.65
2018-03-27T19:26:57.612Z,26.33
2018-03-27T19:29:25.600Z,27.23
2018-03-27T19:31:53.613Z,29.48
2018-03-27T19:34:21.114Z,27.70
2018-03-27T19:36:48.770Z,27.60
2018-03-27T19:39:16.649Z,28.52
2018-03-27T19:41:44.264Z,29.27
2018-03-27T19:44:11.762Z,29.85
2018-03-27T19:46:39.322Z,31.08
2018-03-27T19:49:06.841Z,28.60
2018-03-27T19:51:34.488Z,29.90
2018-03-27T19:54:02.043Z,29.98
2018-03-27T19:56:29.552Z,30.33
2018-03-27T19:58:57.116Z,31.80
2018-03-27T20:01:24.622Z,31.15
2018-03-27T20:03:52.519Z,30.77
2018-03-27T20:06:20.097Z,31.12
2018-03-27T20:08:47.988Z,30.20
2018-03-27T20:11:15.708Z,30.60
2018-03-27T20:13:43.246Z,30.62
2018-03-27T20:16:11.264Z,30.75
2018-03-27T20:18:39.256Z,27.55
2018-03-27T20:21:07.285Z,29.35
2018-03-27T20:23:34.772Z,29.85
2018-03-27T20:26:02.373Z,28.80
2018-03-27T20:28:29.874Z,29.95
2018-03-27T20:30:57.528Z,27.62
2018-03-27T20:33:25.062Z,28.92
2018-03-27T20:35:53.025Z,29.08
2018-03-27T20:38:20.549Z,28.15
2018-03-27T20:40:48.239Z,27.95
2018-03-27T20:43:16.222Z,26.00
2018-03-27T20:45:44.254Z,28.12
2018-03-27T20:48:11.750Z,28.00
2018-03-27T20:50:39.258Z,27.50
2018-03-27T20:53:06.758Z,27.35
2018-03-27T20:55:34.376Z,26.98
2018-03-27T20:58:01.949Z,25.73
2018-03-27T21:00:29.832Z,26.05
2018-03-27T21:02:57.839Z,23.40
2018-03-27T21:05:25.458Z,28.02
2018-03-27T21:07:52.955Z,23.65
2018-03-27T21:10:20.464Z,24.92
2018-03-27T21:12:48.029Z,23.30
2018-03-27T21:15:15.516Z,24.17
2018-03-27T21:17:43.035Z,25.60
2018-03-27T21:20:10.930Z,24.90
2018-03-27T21:22:38.923Z,22.15
2018-03-27T21:25:06.812Z,25.98
2018-03-27T21:27:34.823Z,25.08
2018-03-27T21:30:02.693Z,24.52
2018-03-27T21:32:30.676Z,25.73
2018-03-27T21:34:58.177Z,25.88
2018-03-27T21:37:26.090Z,25.15
2018-03-27T21:39:53.644Z,25.40
2018-03-27T21:42:21.157Z,22.77
2018-03-27T21:44:48.701Z,23.45
2018-03-27T21:47:16.208Z,24.20
2018-03-27T21:49:44.092Z,24.77
2018-03-27T21:52:12.219Z,25.67
2018-03-27T21:54:39.790Z,24.42
2018-03-27T21:57:07.698Z,25.05
2018-03-27T21:59:35.212Z,25.45
2018-03-27T22:02:02.723Z,24.40
2018-03-27T22:04:30.256Z,24.63
2018-03-27T22:06:57.782Z,22.77
2018-03-27T22:09:25.382Z,24.08
2018-03-27T22:11:52.892Z,21.55
2018-03-27T22:14:20.399Z,23.85
2018-03-27T22:16:47.918Z,23.33
2018-03-27T22:19:15.414Z,21.95
2018-03-27T22:21:42.921Z,20.77
2018-03-27T22:24:10.426Z,23.17
2018-03-27T22:26:37.925Z,23.45
2018-03-27T22:29:05.438Z,24.08
2018-03-27T22:31:33.033Z,23.20
2018-03-27T22:34:00.590Z,23.70
2018-03-27T22:36:28.090Z,23.08
2018-03-27T22:38:55.681Z,24.17
2018-03-27T22:41:23.284Z,23.90
2018-03-27T22:43:51.268Z,21.80
2018-03-27T22:46:19.261Z,22.15
2018-03-27T22:48:46.766Z,20.80
2018-03-27T22:51:14.654Z,20.12
2018-03-27T22:53:42.641Z,21.05
2018-03-27T22:56:10.150Z,19.65
2018-03-27T22:58:37.706Z,18.45
2018-03-27T23:01:05.686Z,19.48
2018-03-27T23:03:33.204Z,18.60
2018-03-27T23:06:00.688Z,19.58
2018-03-27T23:08:28.240Z,20.33
2018-03-27T23:10:55.834Z,18.92
2018-03-27T23:13:23.742Z,19.17
2018-03-27T23:15:51.708Z,19.83
2018-03-27T23:18:19.216Z,19.67
2018-03-27T23:20:47.205Z,19.17
2018-03-27T23:23:15.108Z,19.50
2018-03-27T23:25:43.002Z,19.48
2018-03-27T23:28:10.968Z,17.87
2018-03-27T23:30:38.452Z,16.55
2018-03-27T23:33:05.970Z,17.05
2018-03-27T23:35:33.471Z,15.73
2018-03-27T23:38:00.981Z,15.98
2018-03-27T23:40:28.483Z,16.73
2018-03-27T23:42:56.065Z,15.05
2018-03-27T23:45:23.558Z,15.85
2018-03-27T23:47:51.070Z,17.08
2018-03-27T23:50:18.570Z,18.60
2018-03-27T23:52:46.066Z,21.00
2018-03-27T23:55:13.591Z,21.10
2018-03-27T23:57:41.483Z,22.27
